Time;durP1;ratioP1;P1;durP2;ratioP2;P2;SDS_P1;SDS_P2;PMS_P1;PMS_P2;Temp;Humidity;BMP_temperature;BMP_pressure;BME280_temperature;BME280_humidity;BME280_pressure;Samples;Min_cycle;Max_cycle;Signal;HPM_P1;HPM_P2
2022/04/02 00:04:24;;;;;;;13.40;12.30;;;5.60;43.30;;;;;;10346378;28;20227;-77
2022/04/02 00:09:27;;;;;;;13.17;11.93;;;5.60;43.30;;;;;;10347121;28;20303;-77
2022/04/02 00:14:30;;;;;;;13.10;12.00;;;5.60;43.20;;;;;;10346076;28;20292;-74
2022/04/02 00:19:36;;;;;;;12.93;11.77;;;5.60;43.20;;;;;;10351080;28;20234;-74
2022/04/02 00:24:40;;;;;;;13.03;11.83;;;5.60;43.20;;;;;;10345440;28;20607;-74
2022/04/02 00:29:43;;;;;;;13.17;11.93;;;5.60;43.30;;;;;;10342703;28;20233;-73
2022/04/02 00:34:50;;;;;;;12.43;10.93;;;5.50;43.10;;;;;;10342900;28;20231;-74
2022/04/02 00:39:53;;;;;;;12.33;11.27;;;5.50;43.30;;;;;;10342289;28;20238;-74
2022/04/02 00:44:56;;;;;;;12.70;11.60;;;5.50;43.10;;;;;;10344233;28;20226;-74
2022/04/02 00:50:00;;;;;;;12.93;11.73;;;5.50;43.30;;;;;;10344013;28;20242;-73
2022/04/02 00:55:04;;;;;;;13.43;12.23;;;5.40;43.30;;;;;;10342547;28;20231;-74
2022/04/02 01:00:09;;;;;;;13.03;11.83;;;5.40;43.20;;;;;;10344667;28;20231;-74
2022/04/02 01:05:13;;;;;;;13.83;12.63;;;5.40;43.10;;;;;;10342280;28;20230;-74
2022/04/02 01:10:16;;;;;;;13.73;12.40;;;5.40;43.40;;;;;;10340806;28;20226;-74
2022/04/02 01:15:20;;;;;;;12.93;11.63;;;5.30;43.40;;;;;;10345145;28;20226;-74
2022/04/02 01:20:27;;;;;;;12.67;11.57;;;5.30;43.30;;;;;;10341765;28;20238;-73
2022/04/02 01:25:32;;;;;;;12.67;11.47;;;5.30;43.60;;;;;;10342823;28;20222;-73
2022/04/02 01:30:36;;;;;;;12.33;11.20;;;5.30;43.50;;;;;;10340725;28;20238;-74
2022/04/02 01:35:39;;;;;;;12.83;11.63;;;5.30;43.40;;;;;;10341590;28;20321;-74
2022/04/02 01:40:43;;;;;;;12.43;11.23;;;5.20;43.30;;;;;;10342050;28;20265;-73
2022/04/02 01:45:47;;;;;;;13.10;11.90;;;5.20;43.60;;;;;;10338641;28;20237;-74
2022/04/02 01:50:50;;;;;;;12.60;11.30;;;5.20;43.50;;;;;;10345365;28;20241;-74
2022/04/02 01:55:55;;;;;;;12.63;11.50;;;5.30;43.50;;;;;;10341208;28;20234;-74
2022/04/02 02:00:58;;;;;;;11.87;10.77;;;5.30;43.50;;;;;;10341138;28;20764;-74
2022/04/02 02:06:01;;;;;;;12.40;11.23;;;5.30;43.40;;;;;;10342937;28;20238;-75
2022/04/02 02:11:06;;;;;;;11.87;10.87;;;5.30;43.30;;;;;;10342199;28;20230;-74
2022/04/02 02:16:09;;;;;;;12.33;11.07;;;5.20;43.40;;;;;;10340432;28;20859;-74
2022/04/02 02:21:14;;;;;;;11.00;9.90;;;5.20;43.20;;;;;;10341169;28;20231;-73
2022/04/02 02:26:18;;;;;;;11.13;10.03;;;5.20;43.30;;;;;;10339028;28;20781;-73
2022/04/02 02:31:21;;;;;;;11.97;10.40;;;5.20;43.40;;;;;;10340521;28;20744;-74
2022/04/02 02:36:25;;;;;;;11.97;10.33;;;5.20;43.30;;;;;;10341749;28;20230;-74
2022/04/02 02:41:35;;;;;;;11.00;9.90;;;5.10;43.20;;;;;;10339773;28;20239;-73
2022/04/02 02:46:38;;;;;;;11.63;8.97;;;5.20;43.30;;;;;;10335467;28;20230;-73
2022/04/02 02:51:42;;;;;;;11.90;9.57;;;5.10;43.10;;;;;;10343114;28;20241;-73
2022/04/02 02:56:46;;;;;;;9.90;8.90;;;5.00;43.10;;;;;;10333882;28;20233;-74
2022/04/02 03:01:49;;;;;;;10.23;8.80;;;5.00;43.20;;;;;;10336015;28;20245;-73
2022/04/02 03:06:52;;;;;;;13.00;8.27;;;5.00;43.10;;;;;;10339374;28;20586;-73
2022/04/02 03:11:57;;;;;;;8.83;8.00;;;4.90;43.00;;;;;;10348690;28;20235;-73
2022/04/02 03:17:00;;;;;;;11.03;8.43;;;4.90;43.00;;;;;;10351160;28;20256;-73
2022/04/02 03:22:03;;;;;;;12.33;7.77;;;4.80;43.00;;;;;;10347127;28;20236;-74
2022/04/02 03:27:08;;;;;;;8.83;7.80;;;4.80;43.00;;;;;;10349043;28;20230;-73
2022/04/02 03:32:11;;;;;;;12.93;8.00;;;4.80;43.30;;;;;;10342004;28;20242;-73
2022/04/02 03:37:14;;;;;;;9.87;7.80;;;4.70;43.10;;;;;;10345514;28;20235;-73
2022/04/02 03:42:19;;;;;;;9.67;7.80;;;4.70;43.10;;;;;;10346275;28;20758;-73
2022/04/02 03:47:23;;;;;;;10.37;7.70;;;4.70;43.10;;;;;;10344923;28;20729;-73
2022/04/02 03:52:26;;;;;;;12.23;7.40;;;4.70;43.10;;;;;;10346845;28;20231;-73
2022/04/02 03:57:30;;;;;;;8.30;7.50;;;4.70;43.10;;;;;;10343095;28;20609;-73
2022/04/02 04:02:34;;;;;;;11.70;7.90;;;4.60;43.10;;;;;;10347817;28;20242;-73
2022/04/02 04:07:37;;;;;;;11.87;7.60;;;4.60;43.20;;;;;;10345135;28;20714;-73
2022/04/02 04:12:42;;;;;;;7.87;7.07;;;4.60;43.40;;;;;;10341620;28;20240;-73
2022/04/02 04:17:45;;;;;;;9.00;7.17;;;4.50;43.50;;;;;;10345499;28;20234;-73
2022/04/02 04:22:49;;;;;;;7.87;7.13;;;4.40;43.30;;;;;;10343724;28;20238;-73
2022/04/02 04:27:53;;;;;;;10.13;7.13;;;4.40;43.40;;;;;;10344991;28;20575;-73
2022/04/02 04:32:57;;;;;;;9.17;7.73;;;4.40;43.50;;;;;;10344523;28;20604;-73
2022/04/02 04:38:06;;;;;;;8.83;7.30;;;4.30;43.40;;;;;;10338900;28;20247;-73
2022/04/02 04:43:11;;;;;;;9.23;7.47;;;4.40;43.50;;;;;;10346741;28;20226;-73
2022/04/02 04:48:14;;;;;;;9.10;7.00;;;4.30;43.50;;;;;;10342962;28;20230;-73
2022/04/02 04:53:17;;;;;;;7.93;7.13;;;4.30;43.40;;;;;;10345674;28;20233;-73
2022/04/02 04:58:22;;;;;;;10.27;7.20;;;4.30;43.50;;;;;;10339438;28;20230;-73
2022/04/02 05:03:27;;;;;;;9.83;7.70;;;4.30;43.50;;;;;;10348410;28;20233;-73
2022/04/02 05:08:33;;;;;;;9.73;7.73;;;4.30;43.40;;;;;;10347795;28;20230;-73
2022/04/02 05:13:40;;;;;;;11.03;7.50;;;4.30;43.60;;;;;;10342355;28;20234;-73
2022/04/02 05:18:44;;;;;;;12.50;7.80;;;4.20;43.60;;;;;;10341053;28;20317;-73
2022/04/02 05:23:47;;;;;;;7.93;7.07;;;4.20;43.50;;;;;;10341019;28;20640;-73
2022/04/02 05:28:54;;;;;;;8.97;7.47;;;4.30;43.50;;;;;;10341991;28;20707;-73
2022/04/02 05:33:57;;;;;;;14.97;7.40;;;4.30;43.60;;;;;;10336061;28;20245;-73
2022/04/02 05:39:00;;;;;;;9.20;7.67;;;4.20;43.30;;;;;;10336958;28;20226;-73
2022/04/02 05:44:07;;;;;;;8.93;7.77;;;4.30;43.50;;;;;;10342626;28;20222;-73
2022/04/02 05:49:11;;;;;;;9.93;6.97;;;4.30;43.70;;;;;;10339227;28;20738;-73
2022/04/02 05:54:14;;;;;;;10.27;7.80;;;4.30;43.60;;;;;;10343953;28;20610;-73
2022/04/02 05:59:23;;;;;;;8.73;7.83;;;4.30;43.70;;;;;;10343155;28;20238;-73
2022/04/02 06:04:28;;;;;;;8.33;7.50;;;4.30;43.80;;;;;;10339165;28;20230;-73
2022/04/02 06:09:31;;;;;;;7.67;6.90;;;4.30;43.60;;;;;;10343837;28;20660;-73
2022/04/02 06:14:36;;;;;;;10.17;7.70;;;4.30;43.50;;;;;;10339914;28;20634;-76
2022/04/02 06:19:39;;;;;;;7.93;7.13;;;4.30;43.60;;;;;;10339398;28;20803;-77
2022/04/02 06:24:43;;;;;;;10.07;7.63;;;4.50;43.70;;;;;;10342216;28;20236;-76
2022/04/02 06:29:53;;;;;;;10.30;8.00;;;4.40;43.60;;;;;;10337616;28;20726;-76
2022/04/02 06:34:56;;;;;;;8.00;7.20;;;4.40;43.80;;;;;;10341288;28;20241;-77
2022/04/02 06:39:59;;;;;;;8.10;7.40;;;4.50;43.80;;;;;;10336792;28;20239;-76
2022/04/02 06:45:04;;;;;;;8.27;7.50;;;4.50;43.70;;;;;;10346277;28;20234;-76
2022/04/02 06:50:09;;;;;;;10.50;7.47;;;4.60;43.70;;;;;;10348880;28;20225;-76
2022/04/02 06:55:13;;;;;;;8.80;7.13;;;4.60;43.50;;;;;;10347058;28;20226;-76
2022/04/02 07:00:19;;;;;;;9.23;7.03;;;4.60;43.50;;;;;;10353641;28;20234;-76
2022/04/02 07:05:22;;;;;;;9.03;7.30;;;4.60;43.40;;;;;;10343577;28;20234;-76
2022/04/02 07:10:25;;;;;;;10.93;6.90;;;4.60;43.20;;;;;;10347083;28;20230;-76
2022/04/02 07:15:30;;;;;;;10.97;6.87;;;4.60;43.20;;;;;;10346296;28;20594;-76
2022/04/02 07:20:35;;;;;;;8.90;7.17;;;4.60;43.30;;;;;;10349615;28;20237;-76
2022/04/02 07:25:39;;;;;;;9.23;7.10;;;4.60;43.40;;;;;;10343760;28;20760;-76
2022/04/02 07:30:43;;;;;;;10.53;6.80;;;4.60;43.30;;;;;;10346607;28;20234;-76
2022/04/02 07:35:54;;;;;;;10.53;7.20;;;4.60;43.40;;;;;;10347174;28;20254;-76
2022/04/02 07:41:07;;;;;;;9.27;6.73;;;4.60;43.50;;;;;;10343456;28;20238;-76
2022/04/02 07:46:15;;;;;;;9.70;7.60;;;4.60;43.50;;;;;;10345459;28;20222;-76
2022/04/02 07:51:19;;;;;;;9.77;8.17;;;4.70;43.50;;;;;;10348925;28;20265;-76
2022/04/02 07:56:28;;;;;;;8.73;7.83;;;4.70;43.10;;;;;;10341232;28;20694;-76
2022/04/02 08:01:34;;;;;;;9.07;8.17;;;4.70;43.40;;;;;;10344784;28;20229;-77
2022/04/02 08:06:38;;;;;;;9.60;8.13;;;4.80;43.60;;;;;;10344499;28;20719;-76
2022/04/02 08:11:41;;;;;;;9.53;8.60;;;4.70;43.40;;;;;;10344476;28;20238;-76
2022/04/02 08:16:46;;;;;;;11.63;9.53;;;4.80;43.60;;;;;;10343215;28;20768;-77
2022/04/02 08:21:49;;;;;;;9.07;8.17;;;4.80;43.50;;;;;;10345023;28;20231;-77
2022/04/02 08:27:01;;;;;;;9.73;8.73;;;4.80;43.40;;;;;;10342756;28;20226;-77
2022/04/02 08:32:18;;;;;;;9.60;8.40;;;4.90;43.60;;;;;;10345935;28;20230;-76
2022/04/02 08:37:28;;;;;;;9.43;8.43;;;4.90;43.80;;;;;;10344007;28;20229;-76
2022/04/02 08:43:05;;;;;;;9.87;8.87;;;4.90;43.60;;;;;;10343028;28;20256;-76
2022/04/02 08:48:26;;;;;;;9.00;8.07;;;4.90;43.70;;;;;;10337902;28;20215;-76
2022/04/02 08:53:50;;;;;;;8.67;7.77;;;4.90;43.60;;;;;;10343426;28;20817;-76
2022/04/02 08:59:04;;;;;;;8.20;7.50;;;5.00;43.40;;;;;;10342436;28;20239;-76
2022/04/02 09:04:47;;;;;;;7.80;6.93;;;5.00;43.30;;;;;;10342583;28;20251;-76
2022/04/02 09:10:21;;;;;;;9.70;7.43;;;5.00;43.40;;;;;;10340223;28;20237;-76
2022/04/02 09:15:34;;;;;;;8.63;7.83;;;5.00;43.20;;;;;;10340874;28;20242;-76
2022/04/02 09:20:55;;;;;;;8.13;7.33;;;5.00;43.20;;;;;;10339102;28;20242;-76
2022/04/02 09:26:43;;;;;;;8.33;7.57;;;5.00;43.60;;;;;;10340741;28;20236;-76
2022/04/02 09:32:21;;;;;;;9.83;7.73;;;5.10;43.80;;;;;;10341032;28;20590;-76
2022/04/02 09:38:02;;;;;;;8.63;7.73;;;5.10;43.80;;;;;;10338398;28;20231;-76
2022/04/02 09:43:18;;;;;;;8.27;7.47;;;5.20;43.60;;;;;;10324942;28;20228;-76
2022/04/02 09:48:28;;;;;;;8.87;7.57;;;5.30;43.30;;;;;;10341923;28;20225;-76
2022/04/02 09:53:40;;;;;;;7.40;6.70;;;5.30;43.00;;;;;;10343797;28;20231;-76
2022/04/02 09:59:00;;;;;;;7.87;7.07;;;5.30;42.50;;;;;;10343620;28;20235;-76
2022/04/02 10:04:14;;;;;;;7.70;6.90;;;5.30;42.30;;;;;;10339628;28;20309;-76
2022/04/02 10:09:20;;;;;;;8.03;7.33;;;5.30;42.50;;;;;;10341285;28;20762;-76
2022/04/02 10:14:24;;;;;;;8.70;8.00;;;5.30;42.60;;;;;;10338880;28;20237;-76
2022/04/02 10:19:29;;;;;;;8.30;7.53;;;5.30;43.00;;;;;;10341465;28;20317;-76
2022/04/02 10:24:38;;;;;;;9.20;8.20;;;5.40;43.10;;;;;;10338168;28;20227;-76
2022/04/02 10:30:05;;;;;;;9.10;8.30;;;5.40;43.10;;;;;;10339168;28;20239;-76
2022/04/02 10:35:11;;;;;;;9.30;8.33;;;5.50;43.10;;;;;;10343260;28;20226;-76
2022/04/02 10:40:24;;;;;;;8.43;7.73;;;5.60;43.20;;;;;;10339528;28;20273;-76
2022/04/02 10:45:29;;;;;;;9.07;8.17;;;5.60;43.20;;;;;;10336271;28;20239;-76
2022/04/02 10:50:33;;;;;;;9.07;8.30;;;5.60;42.90;;;;;;10340637;28;20789;-76
2022/04/02 10:55:43;;;;;;;9.80;8.90;;;5.70;42.70;;;;;;10341259;28;20235;-76
2022/04/02 11:00:47;;;;;;;9.73;8.90;;;5.70;42.60;;;;;;10337670;28;20734;-77
2022/04/02 11:05:51;;;;;;;9.23;8.40;;;5.70;42.60;;;;;;10339022;28;20227;-76
2022/04/02 11:10:56;;;;;;;6.27;5.77;;;5.70;42.40;;;;;;10336150;28;20711;-77
2022/04/02 11:15:59;;;;;;;6.90;5.77;;;5.50;41.50;;;;;;10337445;28;20239;-76
2022/04/02 11:21:04;;;;;;;6.10;5.60;;;5.40;41.70;;;;;;10341756;28;20235;-75
2022/04/02 11:26:13;;;;;;;6.23;5.73;;;5.20;42.40;;;;;;10336311;28;20284;-76
2022/04/02 11:31:29;;;;;;;5.67;5.17;;;5.20;42.10;;;;;;10344735;28;20259;-76
2022/04/02 11:36:44;;;;;;;5.53;4.87;;;5.10;42.00;;;;;;10345587;28;20234;-76
2022/04/02 11:41:56;;;;;;;5.40;5.00;;;5.00;41.80;;;;;;10344899;28;20241;-76
2022/04/02 11:47:02;;;;;;;4.97;4.57;;;5.00;41.70;;;;;;10345823;28;20217;-76
2022/04/02 11:52:07;;;;;;;6.03;5.13;;;5.00;41.80;;;;;;10349889;28;20234;-76
2022/04/02 11:57:13;;;;;;;5.17;4.67;;;4.90;42.00;;;;;;10345957;28;20230;-76
2022/04/02 12:02:35;;;;;;;5.13;4.57;;;4.90;41.90;;;;;;10345668;28;20230;-76
2022/04/02 12:07:40;;;;;;;5.40;4.90;;;5.00;42.00;;;;;;10346104;28;20230;-76
2022/04/02 12:13:10;;;;;;;5.13;4.73;;;5.00;42.10;;;;;;10350928;28;20226;-72
2022/04/02 12:18:15;;;;;;;5.30;4.80;;;5.10;42.30;;;;;;10348591;28;20218;-72
2022/04/02 12:23:20;;;;;;;5.40;4.90;;;5.10;42.40;;;;;;10346796;28;20234;-72
2022/04/02 12:28:25;;;;;;;5.57;5.17;;;5.10;42.60;;;;;;10342323;28;20230;-72
2022/04/02 12:33:30;;;;;;;5.33;4.83;;;5.20;42.70;;;;;;10345726;28;20703;-72
2022/04/02 12:38:34;;;;;;;5.77;5.27;;;5.20;42.50;;;;;;10344454;28;20233;-72
2022/04/02 12:43:48;;;;;;;6.33;5.83;;;5.30;42.50;;;;;;10346440;28;20277;-72
2022/04/02 12:48:52;;;;;;;5.50;5.00;;;5.30;42.20;;;;;;10341887;28;20257;-72
2022/04/02 12:54:01;;;;;;;5.30;4.90;;;5.30;41.90;;;;;;10344315;28;20238;-72
2022/04/02 12:59:18;;;;;;;4.73;4.33;;;5.20;41.60;;;;;;10343927;28;20265;-72
2022/04/02 13:04:26;;;;;;;5.70;4.73;;;5.10;41.90;;;;;;10342324;28;20317;-72
2022/04/02 13:09:33;;;;;;;5.10;4.70;;;5.00;42.10;;;;;;10341512;28;20238;-73
2022/04/02 13:14:45;;;;;;;5.43;4.90;;;5.00;42.20;;;;;;10338375;28;20234;-72
2022/04/02 13:25:22;;;;;;;5.20;4.77;;;5.10;42.10;;;;;;10339346;28;20218;-72
2022/04/02 13:30:34;;;;;;;5.50;5.00;;;5.10;42.00;;;;;;10343366;28;20698;-72
2022/04/02 13:35:40;;;;;;;5.43;4.93;;;5.00;42.00;;;;;;10342671;28;20753;-73
2022/04/02 13:40:46;;;;;;;4.70;4.23;;;5.00;42.30;;;;;;10341049;28;20245;-72
2022/04/02 13:45:53;;;;;;;4.70;4.30;;;4.90;42.40;;;;;;10342985;28;20748;-72
2022/04/02 13:51:02;;;;;;;4.70;4.30;;;4.90;42.70;;;;;;10341268;28;20223;-72
2022/04/02 13:56:10;;;;;;;4.63;4.23;;;4.90;42.60;;;;;;10339261;28;20257;-72
2022/04/02 14:01:17;;;;;;;5.43;4.93;;;4.80;42.60;;;;;;10338506;28;20260;-72
2022/04/02 14:06:24;;;;;;;6.00;5.40;;;4.70;42.50;;;;;;10342543;28;20313;-72
2022/04/02 14:11:36;;;;;;;5.27;4.87;;;4.70;42.50;;;;;;10342529;28;20237;-72
2022/04/02 14:16:41;;;;;;;5.57;5.10;;;4.70;42.60;;;;;;10343238;28;20613;-72
2022/04/02 14:21:54;;;;;;;5.20;4.70;;;4.70;42.70;;;;;;10340359;28;20234;-72
2022/04/02 14:27:19;;;;;;;5.67;5.17;;;4.70;42.60;;;;;;10339715;28;20617;-72
2022/04/02 14:32:59;;;;;;;5.17;4.77;;;4.70;42.90;;;;;;10340179;28;20238;-72
2022/04/02 14:38:38;;;;;;;5.07;4.67;;;4.80;43.30;;;;;;10339052;28;20234;-73
2022/04/02 14:44:12;;;;;;;5.27;4.87;;;4.80;43.20;;;;;;10337943;28;20226;-73
2022/04/02 14:50:07;;;;;;;6.00;5.10;;;4.90;43.20;;;;;;10336197;28;20231;-72
2022/04/02 14:55:45;;;;;;;5.30;4.80;;;4.90;43.10;;;;;;10340633;28;20222;-73
2022/04/02 15:01:18;;;;;;;5.33;4.93;;;4.90;43.10;;;;;;10340526;28;20238;-72
2022/04/02 15:06:35;;;;;;;5.27;4.93;;;4.90;43.10;;;;;;10322525;28;20300;-72
2022/04/02 15:11:50;;;;;;;6.00;5.50;;;4.80;43.10;;;;;;10346933;28;20238;-72
2022/04/02 15:16:55;;;;;;;5.40;5.00;;;4.80;43.30;;;;;;10340208;28;20789;-72
2022/04/02 15:22:06;;;;;;;5.53;5.13;;;4.90;43.20;;;;;;10347469;28;20233;-72
2022/04/02 15:27:10;;;;;;;5.60;5.20;;;4.90;43.60;;;;;;10344896;28;20221;-72
2022/04/02 15:32:19;;;;;;;6.67;6.10;;;4.90;42.90;;;;;;10347439;28;20226;-72
2022/04/02 15:37:26;;;;;;;6.93;6.33;;;4.90;43.30;;;;;;10342428;28;20230;-72
2022/04/02 15:42:32;;;;;;;8.30;6.90;;;4.80;43.30;;;;;;10346067;28;20666;-72
2022/04/02 15:47:45;;;;;;;19.30;17.80;;;4.80;43.10;;;;;;10342134;28;20241;-72
2022/04/02 15:53:19;;;;;;;12.77;11.77;;;4.80;43.40;;;;;;10347907;28;20634;-72
2022/04/02 15:58:26;;;;;;;7.07;6.47;;;4.80;43.90;;;;;;10348459;28;20734;-72
2022/04/02 16:03:42;;;;;;;6.53;5.93;;;4.90;43.30;;;;;;10345786;28;20234;-72
2022/04/02 16:09:26;;;;;;;6.37;5.87;;;4.70;43.60;;;;;;10345442;28;20227;-72
2022/04/02 16:14:33;;;;;;;6.33;5.73;;;4.70;43.60;;;;;;10345195;28;20222;-72
2022/04/02 16:19:40;;;;;;;6.30;5.80;;;4.70;43.50;;;;;;10349154;28;20235;-73
2022/04/02 16:24:45;;;;;;;6.17;5.67;;;4.70;43.50;;;;;;10348153;28;20233;-72
2022/04/02 16:29:52;;;;;;;6.80;6.20;;;4.80;43.50;;;;;;10350070;28;20752;-72
2022/04/02 16:35:08;;;;;;;6.33;5.73;;;4.80;43.30;;;;;;10344125;28;20231;-72
2022/04/02 16:40:14;;;;;;;6.67;6.17;;;4.90;43.20;;;;;;10345589;28;20226;-72
2022/04/02 16:45:17;;;;;;;6.27;5.77;;;4.80;43.20;;;;;;10340726;28;20229;-72
2022/04/02 16:50:23;;;;;;;6.47;5.97;;;4.80;43.10;;;;;;10340536;28;20317;-72
2022/04/02 16:55:26;;;;;;;6.40;5.90;;;4.80;43.60;;;;;;10340327;28;20238;-72
2022/04/02 17:00:34;;;;;;;6.43;5.93;;;4.80;43.30;;;;;;10340812;28;20250;-72
2022/04/02 17:05:39;;;;;;;6.77;6.27;;;4.80;43.50;;;;;;10343566;28;20238;-72
2022/04/02 17:10:48;;;;;;;8.33;7.73;;;4.80;43.50;;;;;;10342333;28;20230;-73
2022/04/02 17:15:56;;;;;;;6.27;5.87;;;4.80;43.50;;;;;;10345705;28;20242;-73
2022/04/02 17:21:12;;;;;;;6.60;6.10;;;4.90;43.60;;;;;;10340802;28;20242;-73
2022/04/02 17:26:27;;;;;;;6.90;6.30;;;4.80;43.60;;;;;;10336503;28;20229;-73
2022/04/02 17:31:31;;;;;;;6.37;5.97;;;4.80;43.50;;;;;;10345549;28;20596;-73
2022/04/02 17:36:36;;;;;;;6.40;5.90;;;4.80;43.10;;;;;;10339634;28;20242;-73
2022/04/02 17:41:39;;;;;;;6.00;5.50;;;4.80;43.20;;;;;;10338998;28;20238;-73
2022/04/02 17:46:42;;;;;;;5.70;5.30;;;4.80;43.10;;;;;;10342509;28;20253;-73
2022/04/02 17:51:47;;;;;;;6.30;5.80;;;4.80;43.30;;;;;;10339713;28;20253;-73
2022/04/02 17:56:50;;;;;;;6.13;5.63;;;4.80;43.30;;;;;;10339605;28;20231;-73
2022/04/02 18:02:02;;;;;;;6.20;5.70;;;4.80;43.20;;;;;;10343338;28;20234;-73
2022/04/02 18:07:17;;;;;;;5.93;5.43;;;4.80;43.60;;;;;;10341169;28;20597;-73
2022/04/02 18:12:22;;;;;;;5.93;5.43;;;4.80;43.60;;;;;;10338827;28;20229;-73
2022/04/02 18:17:26;;;;;;;5.93;5.43;;;4.80;43.20;;;;;;10339863;28;20769;-73
2022/04/02 18:22:30;;;;;;;5.90;5.40;;;4.80;43.30;;;;;;10346653;28;20726;-73
2022/04/02 18:27:33;;;;;;;5.70;5.30;;;4.80;43.60;;;;;;10343371;28;20223;-73
2022/04/02 18:32:37;;;;;;;6.07;5.57;;;4.80;43.30;;;;;;10332982;28;20607;-73
2022/04/02 18:37:41;;;;;;;6.07;5.57;;;4.80;43.40;;;;;;10339828;28;20597;-73
2022/04/02 18:42:44;;;;;;;6.03;5.53;;;4.90;43.60;;;;;;10340045;28;20234;-73
2022/04/02 18:47:48;;;;;;;6.13;5.63;;;4.90;43.40;;;;;;10335253;28;20226;-73
2022/04/02 18:52:52;;;;;;;5.63;5.23;;;4.80;43.40;;;;;;10341965;28;20232;-73
2022/04/02 18:57:55;;;;;;;6.03;5.47;;;4.80;43.60;;;;;;10339429;28;20237;-72
2022/04/02 19:02:59;;;;;;;5.77;5.27;;;4.80;43.30;;;;;;10342699;28;20716;-73
2022/04/02 19:08:03;;;;;;;5.40;4.90;;;4.80;43.40;;;;;;10339570;28;20215;-73
2022/04/02 19:13:07;;;;;;;4.90;4.50;;;4.80;43.50;;;;;;10341910;28;20234;-73
2022/04/02 19:18:10;;;;;;;5.17;4.43;;;4.80;43.40;;;;;;10338361;28;20222;-73
2022/04/02 19:23:15;;;;;;;4.83;4.30;;;4.70;43.30;;;;;;10342294;28;20226;-73
2022/04/02 19:28:19;;;;;;;5.00;4.50;;;4.70;43.50;;;;;;10338038;28;20226;-74
2022/04/02 19:33:22;;;;;;;4.30;3.90;;;4.70;43.50;;;;;;10337193;28;20255;-73
2022/04/02 19:38:27;;;;;;;4.63;4.23;;;4.90;43.60;;;;;;10339765;28;20254;-73
2022/04/02 19:43:30;;;;;;;4.67;4.20;;;4.80;43.60;;;;;;10339502;28;20226;-73
2022/04/02 19:48:33;;;;;;;5.00;4.53;;;4.80;43.30;;;;;;10333791;28;20232;-73
2022/04/02 19:53:38;;;;;;;5.60;4.23;;;4.80;43.40;;;;;;10344514;28;20718;-73
2022/04/02 19:58:41;;;;;;;4.57;4.23;;;4.80;43.60;;;;;;10354163;28;20241;-73
2022/04/02 20:03:44;;;;;;;5.20;4.70;;;4.80;43.50;;;;;;10348927;28;20524;-72
2022/04/02 20:08:49;;;;;;;6.17;5.63;;;4.80;43.30;;;;;;10344668;28;20238;-73
2022/04/02 20:13:52;;;;;;;6.43;5.83;;;4.80;43.60;;;;;;10346883;28;20746;-72
2022/04/02 20:18:55;;;;;;;6.97;6.27;;;4.80;43.50;;;;;;10344939;28;20724;-73
2022/04/02 20:24:00;;;;;;;7.60;7.00;;;4.80;43.60;;;;;;10349753;28;20261;-73
2022/04/02 20:29:04;;;;;;;7.43;6.73;;;4.80;43.70;;;;;;10345854;28;20319;-73
2022/04/02 20:34:07;;;;;;;7.97;7.17;;;4.80;43.80;;;;;;10346627;28;20242;-73
2022/04/02 20:39:11;;;;;;;7.50;6.80;;;4.60;43.80;;;;;;10343447;28;20231;-73
2022/04/02 20:44:14;;;;;;;7.70;7.00;;;4.50;44.00;;;;;;10343554;28;20715;-73
2022/04/02 20:49:19;;;;;;;8.03;7.33;;;4.50;44.00;;;;;;10344350;28;20237;-73
2022/04/02 20:54:24;;;;;;;8.00;7.30;;;4.50;44.20;;;;;;10341505;28;20257;-72
2022/04/02 20:59:32;;;;;;;8.37;7.57;;;4.60;44.40;;;;;;10344675;28;20269;-73
2022/04/02 21:04:35;;;;;;;8.03;7.33;;;4.60;44.10;;;;;;10345955;28;20230;-72
2022/04/02 21:09:39;;;;;;;8.20;7.50;;;4.60;44.20;;;;;;10341245;28;20594;-73
2022/04/02 21:14:42;;;;;;;8.00;7.30;;;4.60;44.30;;;;;;10344733;28;20218;-73
2022/04/02 21:19:45;;;;;;;8.00;7.30;;;4.60;44.20;;;;;;10345392;28;22615;-72
2022/04/02 21:24:50;;;;;;;7.77;7.17;;;4.60;44.30;;;;;;10348119;28;20222;-73
2022/04/02 21:29:53;;;;;;;7.60;7.00;;;4.60;44.20;;;;;;10343765;28;21547;-73
2022/04/02 21:34:56;;;;;;;8.77;8.07;;;4.70;44.20;;;;;;10350306;28;20600;-73
2022/04/02 21:40:01;;;;;;;8.90;8.00;;;4.60;44.30;;;;;;10343924;28;20238;-73
2022/04/02 21:45:05;;;;;;;8.63;7.93;;;4.60;44.30;;;;;;10342224;28;20573;-73
2022/04/02 21:50:09;;;;;;;8.20;7.60;;;4.60;44.20;;;;;;10344108;28;20612;-73
2022/04/02 21:55:13;;;;;;;8.50;7.87;;;4.50;44.30;;;;;;10347775;28;20223;-73
2022/04/02 22:00:59;;;;;;;8.77;8.00;;;4.50;44.40;;;;;;10347870;28;20230;-72
2022/04/02 22:06:03;;;;;;;8.93;8.23;;;4.50;45.00;;;;;;10345924;28;20806;-73
2022/04/02 22:11:07;;;;;;;9.23;8.43;;;4.40;44.50;;;;;;10345495;28;20245;-73
2022/04/02 22:16:10;;;;;;;8.40;7.70;;;4.40;44.70;;;;;;10352580;28;20237;-73
2022/04/02 22:21:14;;;;;;;8.40;7.70;;;4.40;44.60;;;;;;10348109;28;20227;-72
2022/04/02 22:26:21;;;;;;;7.70;7.10;;;4.40;44.60;;;;;;10345507;28;20691;-73
2022/04/02 22:31:24;;;;;;;8.30;7.53;;;4.40;44.60;;;;;;10343286;28;20275;-73
2022/04/02 22:36:27;;;;;;;8.07;7.40;;;4.50;44.50;;;;;;10347913;28;20289;-72
2022/04/02 22:41:33;;;;;;;8.20;7.50;;;4.50;44.40;;;;;;10341973;28;20609;-72
2022/04/02 22:46:37;;;;;;;7.97;7.37;;;4.50;44.50;;;;;;10341012;28;20234;-72
2022/04/02 22:51:40;;;;;;;7.80;7.20;;;4.60;44.50;;;;;;10351215;28;20230;-72
2022/04/02 22:56:45;;;;;;;7.20;6.60;;;4.60;44.30;;;;;;10347341;28;20714;-72
2022/04/02 23:01:48;;;;;;;6.83;6.33;;;4.60;44.30;;;;;;10344350;28;20234;-73
2022/04/02 23:06:51;;;;;;;7.10;6.50;;;4.60;44.10;;;;;;10339652;28;20237;-72
2022/04/02 23:11:56;;;;;;;6.93;6.33;;;4.60;44.10;;;;;;10338748;28;20237;-72
2022/04/02 23:16:59;;;;;;;7.40;6.83;;;4.60;44.80;;;;;;10342890;28;20241;-72
2022/04/02 23:22:02;;;;;;;7.20;6.60;;;4.70;44.10;;;;;;10342083;28;20315;-73
2022/04/02 23:27:07;;;;;;;8.00;7.23;;;4.70;44.00;;;;;;10350556;28;20694;-73
2022/04/02 23:32:10;;;;;;;8.47;7.67;;;4.70;44.00;;;;;;10358568;28;20226;-73
2022/04/02 23:37:13;;;;;;;8.37;7.77;;;4.80;43.90;;;;;;10356630;28;20227;-73
2022/04/02 23:42:18;;;;;;;9.00;8.20;;;4.70;43.70;;;;;;10352591;28;20238;-73
2022/04/02 23:47:21;;;;;;;9.70;8.90;;;4.70;43.90;;;;;;10355796;28;20225;-73
2022/04/02 23:52:24;;;;;;;10.17;9.37;;;4.70;43.80;;;;;;10352699;28;20226;-73
2022/04/02 23:57:29;;;;;;;9.40;8.60;;;4.70;43.60;;;;;;10353826;28;20222;-72
